createdAt,value
2023-03-12T00:01:22.901Z,1003.34
2023-03-12T00:03:56.290Z,1003.32
2023-03-12T00:06:29.191Z,1003.31
2023-03-12T00:09:02.159Z,1003.29
2023-03-12T00:11:35.326Z,1003.28
2023-03-12T00:14:09.337Z,1003.26
2023-03-12T00:16:42.314Z,1003.25
2023-03-12T00:19:29.813Z,1003.27
2023-03-12T00:22:03.389Z,1003.27
2023-03-12T00:24:37.344Z,1003.27
2023-03-12T00:27:11.360Z,1003.28
2023-03-12T00:29:45.290Z,1003.28
2023-03-12T00:32:18.240Z,1003.29
2023-03-12T00:34:51.219Z,1003.29
2023-03-12T00:37:24.267Z,1003.30
2023-03-12T00:39:57.218Z,1003.32
2023-03-12T00:42:30.214Z,1003.33
2023-03-12T00:45:03.282Z,1003.32
2023-03-12T00:47:36.210Z,1003.31
2023-03-12T00:50:09.304Z,1003.32
2023-03-12T00:52:42.413Z,1003.35
2023-03-12T00:55:16.394Z,1003.36
2023-03-12T00:57:50.279Z,1003.36
2023-03-12T01:00:23.241Z,1003.35
2023-03-12T01:02:56.504Z,1003.34
2023-03-12T01:05:30.217Z,1003.32
2023-03-12T01:08:03.116Z,1003.30
2023-03-12T01:10:36.243Z,1003.29
2023-03-12T01:13:23.050Z,1003.27
2023-03-12T01:15:56.319Z,1003.26
2023-03-12T01:18:28.981Z,1003.27
2023-03-12T01:21:06.154Z,1003.26
2023-03-12T01:23:39.086Z,1003.27
2023-03-12T01:26:12.182Z,1003.24
2023-03-12T01:28:45.334Z,1003.22
2023-03-12T01:31:18.325Z,1003.22
2023-03-12T01:33:51.334Z,1003.24
2023-03-12T01:36:24.135Z,1003.24
2023-03-12T01:38:57.013Z,1003.25
2023-03-12T01:41:30.273Z,1003.27
2023-03-12T01:44:03.326Z,1003.29
2023-03-12T01:46:36.312Z,1003.31
2023-03-12T01:49:09.518Z,1003.30
2023-03-12T01:51:43.448Z,1003.28
2023-03-12T01:54:16.158Z,1003.26
2023-03-12T01:56:49.017Z,1003.23
2023-03-12T01:59:22.317Z,1003.20
2023-03-12T02:01:55.392Z,1003.16
2023-03-12T02:04:28.065Z,1003.13
2023-03-12T02:07:01.140Z,1003.11
2023-03-12T02:09:34.315Z,1003.08
2023-03-12T02:12:07.195Z,1003.06
2023-03-12T02:14:40.225Z,1003.04
2023-03-12T02:17:13.375Z,1003.02
2023-03-12T02:19:46.406Z,1003.01
2023-03-12T02:22:19.160Z,1003.00
2023-03-12T02:24:52.585Z,1002.99
2023-03-12T02:27:26.129Z,1002.96
2023-03-12T02:29:59.441Z,1002.95
2023-03-12T02:32:32.424Z,1002.93
2023-03-12T02:35:05.624Z,1002.90
2023-03-12T02:37:39.385Z,1002.88
2023-03-12T02:40:12.468Z,1002.84
2023-03-12T02:42:45.463Z,1002.83
2023-03-12T02:45:18.213Z,1002.81
2023-03-12T02:47:51.125Z,1002.79
2023-03-12T02:50:24.377Z,1002.79
2023-03-12T02:52:57.436Z,1002.79
2023-03-12T02:55:30.406Z,1002.79
2023-03-12T02:58:03.359Z,1002.78
2023-03-12T03:00:36.401Z,1002.78
2023-03-12T03:03:09.395Z,1002.77
2023-03-12T03:05:42.438Z,1002.76
2023-03-12T03:08:15.540Z,1002.72
2023-03-12T03:10:48.498Z,1002.71
2023-03-12T03:13:21.423Z,1002.69
2023-03-12T03:15:54.480Z,1002.68
2023-03-12T03:18:27.424Z,1002.67
2023-03-12T03:21:00.515Z,1002.67
2023-03-12T03:23:33.147Z,1002.67
2023-03-12T03:26:06.676Z,1002.66
2023-03-12T03:28:40.430Z,1002.66
2023-03-12T03:31:13.570Z,1002.66
2023-03-12T03:33:46.554Z,1002.66
2023-03-12T03:36:19.513Z,1002.66
2023-03-12T03:38:52.568Z,1002.66
2023-03-12T03:41:25.861Z,1002.65
2023-03-12T03:43:59.736Z,1002.65
2023-03-12T03:46:33.676Z,1002.64
2023-03-12T03:49:06.621Z,1002.66
2023-03-12T03:51:39.214Z,1002.67
2023-03-12T03:54:12.694Z,1002.68
2023-03-12T03:56:46.483Z,1002.67
2023-03-12T03:59:19.459Z,1002.68
2023-03-12T04:01:52.317Z,1002.68
2023-03-12T04:04:25.627Z,1002.70
2023-03-12T04:06:58.514Z,1002.69
2023-03-12T04:09:31.359Z,1002.68
2023-03-12T04:12:04.264Z,1002.64
2023-03-12T04:14:37.584Z,1002.63
2023-03-12T04:17:10.374Z,1002.59
2023-03-12T04:19:43.515Z,1002.55
2023-03-12T04:22:16.238Z,1002.51
2023-03-12T04:24:49.326Z,1002.50
2023-03-12T04:27:22.585Z,1002.49
2023-03-12T04:29:55.584Z,1002.50
2023-03-12T04:32:28.441Z,1002.51
2023-03-12T04:35:01.804Z,1002.51
2023-03-12T04:37:35.557Z,1002.51
2023-03-12T04:40:08.667Z,1002.50
2023-03-12T04:42:41.263Z,1002.49
2023-03-12T04:45:14.386Z,1002.46
2023-03-12T04:47:47.275Z,1002.44
2023-03-12T04:50:20.324Z,1002.44
2023-03-12T04:52:53.324Z,1002.43
2023-03-12T04:55:26.687Z,1002.42
2023-03-12T04:57:59.631Z,1002.41
2023-03-12T05:00:32.592Z,1002.39
2023-03-12T05:03:05.725Z,1002.39
2023-03-12T05:05:38.681Z,1002.38
2023-03-12T05:08:11.438Z,1002.37
2023-03-12T05:10:44.508Z,1002.37
2023-03-12T05:13:17.588Z,1002.37
2023-03-12T05:15:50.333Z,1002.36
2023-03-12T05:18:23.336Z,1002.37
2023-03-12T05:20:56.664Z,1002.36
2023-03-12T05:23:29.700Z,1002.36
2023-03-12T05:26:02.494Z,1002.35
2023-03-12T05:28:35.652Z,1002.35
2023-03-12T05:31:08.725Z,1002.35
2023-03-12T05:33:41.341Z,1002.35
2023-03-12T05:36:14.815Z,1002.35
2023-03-12T05:38:47.633Z,1002.36
2023-03-12T05:41:20.358Z,1002.35
2023-03-12T05:43:53.385Z,1002.33
2023-03-12T05:46:26.717Z,1002.34
2023-03-12T05:48:59.589Z,1002.34
2023-03-12T05:51:32.501Z,1002.36
2023-03-12T05:54:05.609Z,1002.36
2023-03-12T05:56:38.475Z,1002.36
2023-03-12T05:59:11.496Z,1002.35
2023-03-12T06:01:44.411Z,1002.34
2023-03-12T06:04:17.674Z,1002.34
2023-03-12T06:06:50.423Z,1002.34
2023-03-12T06:09:23.692Z,1002.34
2023-03-12T06:11:56.753Z,1002.36
2023-03-12T06:14:29.520Z,1002.37
2023-03-12T06:17:02.587Z,1002.38
2023-03-12T06:19:35.516Z,1002.40
2023-03-12T06:22:08.585Z,1002.39
2023-03-12T06:24:41.419Z,1002.37
2023-03-12T06:27:14.720Z,1002.36
2023-03-12T06:29:47.726Z,1002.36
2023-03-12T06:32:20.491Z,1002.36
2023-03-12T06:34:53.987Z,1002.36
2023-03-12T06:37:28.576Z,1002.36
2023-03-12T06:40:01.579Z,1002.36
2023-03-12T06:42:34.545Z,1002.35
2023-03-12T06:45:08.046Z,1002.33
2023-03-12T06:47:42.738Z,1002.32
2023-03-12T06:50:15.742Z,1002.29
2023-03-12T06:52:48.763Z,1002.26
2023-03-12T06:55:21.608Z,1002.22
2023-03-12T06:57:54.946Z,1002.18
2023-03-12T07:00:28.773Z,1002.15
2023-03-12T07:03:01.881Z,1002.15
2023-03-12T07:05:34.636Z,1002.16
2023-03-12T07:08:07.542Z,1002.18
2023-03-12T07:10:40.689Z,1002.18
2023-03-12T07:13:13.868Z,1002.17
2023-03-12T07:15:46.728Z,1002.15
2023-03-12T07:18:19.502Z,1002.12
2023-03-12T07:20:52.519Z,1002.10
2023-03-12T07:23:25.857Z,1002.10
2023-03-12T07:25:58.861Z,1002.11
2023-03-12T07:28:31.900Z,1002.12
2023-03-12T07:31:04.857Z,1002.12
2023-03-12T07:33:37.735Z,1002.14
2023-03-12T07:36:10.985Z,1002.17
2023-03-12T07:38:43.905Z,1002.18
2023-03-12T07:41:16.962Z,1002.16
2023-03-12T07:43:49.870Z,1002.16
2023-03-12T07:46:22.606Z,1002.15
2023-03-12T07:48:55.642Z,1002.15
2023-03-12T07:51:28.980Z,1002.15
2023-03-12T07:54:02.147Z,1002.15
2023-03-12T07:56:36.264Z,1002.16
2023-03-12T07:59:09.135Z,1002.18
2023-03-12T08:01:44.594Z,1002.22
2023-03-12T08:04:29.057Z,1002.20
2023-03-12T08:07:02.059Z,1002.21
2023-03-12T08:09:34.940Z,1002.20
2023-03-12T08:12:07.776Z,1002.22
2023-03-12T08:14:44.104Z,1002.24
2023-03-12T08:17:16.876Z,1002.26
2023-03-12T08:19:49.875Z,1002.26
2023-03-12T08:22:22.646Z,1002.26
2023-03-12T08:24:55.862Z,1002.27
2023-03-12T08:27:28.736Z,1002.29
2023-03-12T08:30:01.751Z,1002.30
2023-03-12T08:32:35.153Z,1002.31
2023-03-12T08:35:07.923Z,1002.33
2023-03-12T08:37:40.757Z,1002.34
2023-03-12T08:40:13.798Z,1002.33
2023-03-12T08:42:46.969Z,1002.33
2023-03-12T08:45:19.932Z,1002.30
2023-03-12T08:47:52.651Z,1002.28
2023-03-12T08:50:25.710Z,1002.25
2023-03-12T08:52:59.002Z,1002.24
2023-03-12T08:55:31.861Z,1002.22
2023-03-12T08:58:05.037Z,1002.22
2023-03-12T09:00:37.873Z,1002.21
2023-03-12T09:03:10.886Z,1002.19
2023-03-12T09:05:43.955Z,1002.17
2023-03-12T09:08:16.945Z,1002.17
2023-03-12T09:10:49.978Z,1002.17
2023-03-12T09:13:22.673Z,1002.17
2023-03-12T09:15:55.669Z,1002.16
2023-03-12T09:18:28.994Z,1002.17
2023-03-12T09:21:02.079Z,1002.17
2023-03-12T09:23:34.882Z,1002.16
2023-03-12T09:26:09.791Z,1002.16
2023-03-12T09:28:43.056Z,1002.15
2023-03-12T09:31:15.753Z,1002.16
2023-03-12T09:33:48.730Z,1002.17
2023-03-12T09:36:21.725Z,1002.19
2023-03-12T09:38:54.845Z,1002.21
2023-03-12T09:41:27.916Z,1002.21
2023-03-12T09:44:00.940Z,1002.22
2023-03-12T09:46:33.995Z,1002.23
2023-03-12T09:49:07.101Z,1002.22
2023-03-12T09:51:39.855Z,1002.23
2023-03-12T09:54:12.744Z,1002.26
2023-03-12T09:56:46.056Z,1002.29
2023-03-12T09:59:18.761Z,1002.32
2023-03-12T10:01:51.757Z,1002.32
2023-03-12T10:04:25.006Z,1002.36
2023-03-12T10:06:57.761Z,1002.39
2023-03-12T10:09:31.076Z,1002.41
2023-03-12T10:12:04.151Z,1002.45
2023-03-12T10:14:37.033Z,1002.48
2023-03-12T10:17:10.065Z,1002.49
2023-03-12T10:19:42.995Z,1002.51
2023-03-12T10:22:15.781Z,1002.51
2023-03-12T10:24:49.005Z,1002.51
2023-03-12T10:27:21.811Z,1002.48
2023-03-12T10:29:54.938Z,1002.47
2023-03-12T10:32:28.419Z,1002.47
2023-03-12T10:35:01.868Z,1002.48
2023-03-12T10:37:35.137Z,1002.49
2023-03-12T10:40:08.036Z,1002.47
2023-03-12T10:42:40.960Z,1002.49
2023-03-12T10:45:14.129Z,1002.48
2023-03-12T10:47:47.012Z,1002.47
2023-03-12T10:50:19.833Z,1002.45
2023-03-12T10:52:52.962Z,1002.43
2023-03-12T10:55:30.796Z,1002.39
2023-03-12T10:58:08.157Z,1002.38
2023-03-12T11:00:40.823Z,1002.38
2023-03-12T11:03:14.187Z,1002.36
2023-03-12T11:05:47.200Z,1002.36
2023-03-12T11:08:20.144Z,1002.36
2023-03-12T11:10:53.027Z,1002.34
2023-03-12T11:13:26.039Z,1002.35
2023-03-12T11:15:59.211Z,1002.34
2023-03-12T11:18:32.094Z,1002.32
2023-03-12T11:21:05.178Z,1002.31
2023-03-12T11:23:38.157Z,1002.32
2023-03-12T11:26:10.865Z,1002.34
2023-03-12T11:28:44.164Z,1002.34
2023-03-12T11:31:17.047Z,1002.36
2023-03-12T11:33:50.270Z,1002.36
2023-03-12T11:36:22.886Z,1002.37
2023-03-12T11:38:55.888Z,1002.40
2023-03-12T11:41:28.968Z,1002.43
2023-03-12T11:44:02.259Z,1002.43
2023-03-12T11:46:35.153Z,1002.42
2023-03-12T11:49:08.202Z,1002.39
2023-03-12T11:51:41.019Z,1002.37
2023-03-12T11:54:14.424Z,1002.33
2023-03-12T11:56:48.425Z,1002.28
2023-03-12T11:59:22.273Z,1002.25
2023-03-12T12:01:55.379Z,1002.21
2023-03-12T12:04:28.217Z,1002.16
2023-03-12T12:07:00.928Z,1002.13
2023-03-12T12:09:34.080Z,1002.10
2023-03-12T12:12:07.118Z,1002.05
2023-03-12T12:14:40.106Z,1002.00
2023-03-12T12:17:13.080Z,1001.94
2023-03-12T12:19:46.145Z,1001.90
2023-03-12T12:22:19.114Z,1001.87
2023-03-12T12:24:52.319Z,1001.84
2023-03-12T12:27:25.648Z,1001.82
2023-03-12T12:29:59.304Z,1001.81
2023-03-12T12:32:32.229Z,1001.80
2023-03-12T12:35:04.992Z,1001.81
2023-03-12T12:37:38.065Z,1001.80
2023-03-12T12:40:11.108Z,1001.80
2023-03-12T12:42:44.482Z,1001.82
2023-03-12T12:45:18.027Z,1001.81
2023-03-12T12:47:51.127Z,1001.77
2023-03-12T12:50:24.386Z,1001.75
2023-03-12T12:52:57.309Z,1001.73
2023-03-12T12:55:30.481Z,1001.70
2023-03-12T12:58:04.256Z,1001.69
2023-03-12T13:00:37.373Z,1001.67
2023-03-12T13:03:10.340Z,1001.66
2023-03-12T13:05:47.122Z,1001.62
2023-03-12T13:08:20.174Z,1001.60
2023-03-12T13:10:58.103Z,1001.59
2023-03-12T13:13:27.541Z,1001.56
2023-03-12T13:15:59.542Z,1001.55
2023-03-12T13:18:32.417Z,1001.53
2023-03-12T13:21:05.354Z,1001.47
2023-03-12T13:23:38.376Z,1001.44
2023-03-12T13:26:11.341Z,1001.42
2023-03-12T13:28:44.582Z,1001.38
2023-03-12T13:31:17.183Z,1001.36
2023-03-12T13:33:50.214Z,1001.32
2023-03-12T13:36:23.106Z,1001.27
2023-03-12T13:38:56.423Z,1001.24
2023-03-12T13:41:31.503Z,1001.20
2023-03-12T13:44:02.168Z,1001.16
2023-03-12T13:46:35.392Z,1001.13
2023-03-12T13:49:08.116Z,1001.11
2023-03-12T13:51:41.602Z,1001.09
2023-03-12T13:54:15.323Z,1001.04
2023-03-12T13:56:48.209Z,1001.02
2023-03-12T13:59:21.201Z,1001.00
2023-03-12T14:01:54.550Z,1000.98
2023-03-12T14:04:27.248Z,1000.96
2023-03-12T14:07:00.605Z,1000.98
2023-03-12T14:09:34.430Z,1000.99
2023-03-12T14:12:07.250Z,1001.01
2023-03-12T14:14:40.343Z,1001.01
2023-03-12T14:17:13.310Z,1001.00
2023-03-12T14:19:46.931Z,1000.99
2023-03-12T14:22:20.143Z,1001.01
2023-03-12T14:24:53.328Z,1001.01
2023-03-12T14:27:26.283Z,1001.02
2023-03-12T14:29:59.424Z,1001.03
2023-03-12T14:32:32.686Z,1001.05
2023-03-12T14:35:05.164Z,1001.06
2023-03-12T14:37:38.299Z,1001.03
2023-03-12T14:40:11.178Z,1001.00
2023-03-12T14:42:44.563Z,1000.98
2023-03-12T14:45:17.195Z,1000.94
2023-03-12T14:47:50.386Z,1000.91
2023-03-12T14:50:23.219Z,1000.90
2023-03-12T14:52:56.320Z,1000.87
2023-03-12T14:55:29.426Z,1000.87
2023-03-12T14:58:02.553Z,1000.89
2023-03-12T15:00:35.519Z,1000.89
2023-03-12T15:03:08.269Z,1000.88
2023-03-12T15:05:41.351Z,1000.87
2023-03-12T15:08:14.188Z,1000.87
2023-03-12T15:10:47.348Z,1000.85
2023-03-12T15:13:20.340Z,1000.85
2023-03-12T15:15:53.521Z,1000.83
2023-03-12T15:18:26.797Z,1000.81
2023-03-12T15:20:59.545Z,1000.80
2023-03-12T15:23:32.416Z,1000.77
2023-03-12T15:26:05.613Z,1000.76
2023-03-12T15:28:38.383Z,1000.74
2023-03-12T15:31:11.347Z,1000.72
2023-03-12T15:33:44.370Z,1000.71
2023-03-12T15:36:23.344Z,1000.68
2023-03-12T15:38:56.646Z,1000.66
2023-03-12T15:41:29.436Z,1000.64
2023-03-12T15:44:02.354Z,1000.64
2023-03-12T15:46:35.762Z,1000.66
2023-03-12T15:49:08.421Z,1000.68
2023-03-12T15:51:41.364Z,1000.69
2023-03-12T15:54:14.292Z,1000.71
2023-03-12T15:56:51.450Z,1000.73
2023-03-12T15:59:24.450Z,1000.72
2023-03-12T16:01:57.754Z,1000.70
2023-03-12T16:04:30.695Z,1000.69
2023-03-12T16:07:03.514Z,1000.67
2023-03-12T16:09:36.744Z,1000.68
2023-03-12T16:12:10.590Z,1000.68
2023-03-12T16:14:43.797Z,1000.71
2023-03-12T16:17:17.320Z,1000.73
2023-03-12T16:19:50.557Z,1000.76
2023-03-12T16:22:23.575Z,1000.77
2023-03-12T16:24:56.666Z,1000.78
2023-03-12T16:27:32.965Z,1000.79
2023-03-12T16:30:02.717Z,1000.76
2023-03-12T16:32:35.886Z,1000.73
2023-03-12T16:35:09.818Z,1000.73
2023-03-12T16:37:43.562Z,1000.72
2023-03-12T16:40:30.817Z,1000.73
2023-03-12T16:42:49.385Z,1000.75
2023-03-12T16:45:22.465Z,1000.78
2023-03-12T16:47:56.837Z,1000.81
2023-03-12T16:50:29.489Z,1000.83
2023-03-12T16:53:02.591Z,1000.85
2023-03-12T16:55:35.530Z,1000.88
2023-03-12T16:58:08.647Z,1000.94
2023-03-12T17:00:41.592Z,1000.98
2023-03-12T17:03:14.388Z,1001.03
2023-03-12T17:05:47.452Z,1001.07
2023-03-12T17:08:20.669Z,1001.12
2023-03-12T17:10:53.687Z,1001.14
2023-03-12T17:13:26.581Z,1001.19
2023-03-12T17:16:00.004Z,1001.21
2023-03-12T17:18:32.693Z,1001.25
2023-03-12T17:21:05.461Z,1001.30
2023-03-12T17:23:38.772Z,1001.35
2023-03-12T17:26:11.387Z,1001.41
2023-03-12T17:28:44.803Z,1001.47
2023-03-12T17:31:17.494Z,1001.53
2023-03-12T17:33:50.674Z,1001.57
2023-03-12T17:36:23.804Z,1001.60
2023-03-12T17:38:56.735Z,1001.61
2023-03-12T17:41:29.549Z,1001.64
2023-03-12T17:44:02.785Z,1001.68
2023-03-12T17:46:35.670Z,1001.70
2023-03-12T17:49:08.856Z,1001.72
2023-03-12T17:51:42.849Z,1001.73
2023-03-12T17:54:15.716Z,1001.73
2023-03-12T17:56:48.452Z,1001.76
2023-03-12T17:59:21.716Z,1001.78
2023-03-12T18:01:54.756Z,1001.79
2023-03-12T18:04:27.901Z,1001.81
2023-03-12T18:07:00.874Z,1001.81
2023-03-12T18:09:33.611Z,1001.82
2023-03-12T18:12:06.706Z,1001.84
2023-03-12T18:14:39.633Z,1001.84
2023-03-12T18:17:12.595Z,1001.84
2023-03-12T18:19:45.913Z,1001.84
2023-03-12T18:22:19.639Z,1001.80
2023-03-12T18:24:53.026Z,1001.77
2023-03-12T18:27:26.969Z,1001.76
2023-03-12T18:30:00.809Z,1001.75
2023-03-12T18:32:33.915Z,1001.72
2023-03-12T18:35:06.801Z,1001.71
2023-03-12T18:37:42.835Z,1001.69
2023-03-12T18:40:15.536Z,1001.70
2023-03-12T18:42:48.808Z,1001.70
2023-03-12T18:45:21.815Z,1001.69
2023-03-12T18:47:54.849Z,1001.69
2023-03-12T18:50:27.804Z,1001.66
2023-03-12T18:53:00.589Z,1001.65
2023-03-12T18:55:33.581Z,1001.65
2023-03-12T18:58:06.998Z,1001.63
2023-03-12T19:00:40.901Z,1001.63
2023-03-12T19:03:13.947Z,1001.64
2023-03-12T19:05:46.897Z,1001.67
2023-03-12T19:08:19.608Z,1001.68
2023-03-12T19:10:52.876Z,1001.70
2023-03-12T19:13:25.863Z,1001.70
2023-03-12T19:15:59.116Z,1001.71
2023-03-12T19:18:32.800Z,1001.74
2023-03-12T19:21:05.800Z,1001.76
2023-03-12T19:23:38.634Z,1001.78
2023-03-12T19:26:11.819Z,1001.80
2023-03-12T19:28:44.830Z,1001.83
2023-03-12T19:31:17.660Z,1001.83
2023-03-12T19:33:50.936Z,1001.85
2023-03-12T19:36:23.623Z,1001.84
2023-03-12T19:38:56.746Z,1001.83
2023-03-12T19:41:29.779Z,1001.83
2023-03-12T19:44:02.684Z,1001.84
2023-03-12T19:46:35.962Z,1001.86
2023-03-12T19:49:09.059Z,1001.86
2023-03-12T19:51:42.965Z,1001.88
2023-03-12T19:54:15.826Z,1001.88
2023-03-12T19:56:48.952Z,1001.87
2023-03-12T19:59:21.633Z,1001.87
2023-03-12T20:01:55.080Z,1001.88
2023-03-12T20:04:28.031Z,1001.88
2023-03-12T20:07:01.050Z,1001.88
2023-03-12T20:09:33.754Z,1001.87
2023-03-12T20:12:07.131Z,1001.85
2023-03-12T20:14:42.844Z,1001.84
2023-03-12T20:17:14.005Z,1001.84
2023-03-12T20:19:47.018Z,1001.83
2023-03-12T20:22:19.955Z,1001.83
2023-03-12T20:24:53.079Z,1001.83
2023-03-12T20:27:26.057Z,1001.83
2023-03-12T20:29:59.096Z,1001.81
2023-03-12T20:32:32.165Z,1001.80
2023-03-12T20:35:04.867Z,1001.79
2023-03-12T20:37:37.675Z,1001.78
2023-03-12T20:40:10.845Z,1001.76
2023-03-12T20:42:44.004Z,1001.75
2023-03-12T20:45:16.985Z,1001.73
2023-03-12T20:47:50.024Z,1001.72
2023-03-12T20:50:22.792Z,1001.70
2023-03-12T20:52:56.122Z,1001.69
2023-03-12T20:55:31.695Z,1001.65
2023-03-12T20:58:04.983Z,1001.61
2023-03-12T21:00:37.992Z,1001.60
2023-03-12T21:03:10.858Z,1001.58
2023-03-12T21:05:43.930Z,1001.56
2023-03-12T21:08:16.746Z,1001.55
2023-03-12T21:10:50.218Z,1001.56
2023-03-12T21:13:24.026Z,1001.56
2023-03-12T21:15:57.063Z,1001.55
2023-03-12T21:18:29.830Z,1001.54
2023-03-12T21:21:03.087Z,1001.52
2023-03-12T21:23:36.264Z,1001.50
2023-03-12T21:26:09.802Z,1001.48
2023-03-12T21:28:42.037Z,1001.46
2023-03-12T21:31:20.744Z,1001.42
2023-03-12T21:33:54.671Z,1001.39
2023-03-12T21:36:27.807Z,1001.37
2023-03-12T21:39:00.891Z,1001.35
2023-03-12T21:41:34.121Z,1001.34
2023-03-12T21:44:07.082Z,1001.32
2023-03-12T21:46:40.020Z,1001.31
2023-03-12T21:49:13.180Z,1001.27
2023-03-12T21:51:45.909Z,1001.24
2023-03-12T21:54:19.064Z,1001.21
2023-03-12T21:56:55.077Z,1001.19
2023-03-12T21:59:28.118Z,1001.15
2023-03-12T22:02:01.297Z,1001.14
2023-03-12T22:04:35.087Z,1001.12
2023-03-12T22:07:08.154Z,1001.09
2023-03-12T22:09:41.192Z,1001.05
2023-03-12T22:12:14.269Z,1001.03
2023-03-12T22:14:47.324Z,1000.98
2023-03-12T22:17:21.329Z,1000.94
2023-03-12T22:19:55.137Z,1000.89
2023-03-12T22:22:28.150Z,1000.83
2023-03-12T22:25:01.321Z,1000.78
2023-03-12T22:27:35.137Z,1000.74
2023-03-12T22:30:08.256Z,1000.74
2023-03-12T22:32:41.268Z,1000.71
2023-03-12T22:35:15.259Z,1000.71
2023-03-12T22:37:48.398Z,1000.71
2023-03-12T22:40:22.184Z,1000.69
2023-03-12T22:42:55.256Z,1000.67
2023-03-12T22:45:28.181Z,1000.66
2023-03-12T22:48:01.161Z,1000.64
2023-03-12T22:50:35.185Z,1000.62
2023-03-12T22:53:08.262Z,1000.60
2023-03-12T22:55:41.215Z,1000.56
2023-03-12T22:58:14.402Z,1000.52
2023-03-12T23:00:48.308Z,1000.48
2023-03-12T23:03:21.225Z,1000.43
2023-03-12T23:05:54.266Z,1000.38
2023-03-12T23:08:27.464Z,1000.36
2023-03-12T23:11:01.082Z,1000.36
2023-03-12T23:13:34.246Z,1000.34
2023-03-12T23:16:07.307Z,1000.35
2023-03-12T23:18:40.195Z,1000.35
2023-03-12T23:21:13.123Z,1000.34
2023-03-12T23:23:46.308Z,1000.33
2023-03-12T23:26:19.091Z,1000.32
2023-03-12T23:28:52.492Z,1000.29
2023-03-12T23:31:26.296Z,1000.28
2023-03-12T23:33:59.249Z,1000.27
2023-03-12T23:36:32.170Z,1000.24
2023-03-12T23:39:05.479Z,1000.22
2023-03-12T23:41:39.238Z,1000.20
2023-03-12T23:44:12.315Z,1000.18
2023-03-12T23:46:45.338Z,1000.14
2023-03-12T23:49:18.312Z,1000.11
2023-03-12T23:51:51.283Z,1000.08
2023-03-12T23:54:24.151Z,1000.04
2023-03-12T23:56:56.984Z,1000.03
2023-03-12T23:59:30.431Z,999.99
